Time;durP1;ratioP1;P1;durP2;ratioP2;P2;SDS_P1;SDS_P2;PMS_P1;PMS_P2;Temp;Humidity;BMP_temperature;BMP_pressure;BME280_temperature;BME280_humidity;BME280_pressure;Samples;Min_cycle;Max_cycle;Signal;HPM_P1;HPM_P2
2022/06/13 00:00:10;;;;;;;2.40;2.20;;;26.40;48.40;;;;;;5053043;28;20498;-74
2022/06/13 00:02:37;;;;;;;2.90;2.60;;;26.40;48.40;;;;;;5053285;28;20022;-75
2022/06/13 00:05:04;;;;;;;2.60;2.40;;;26.30;48.30;;;;;;5053670;28;20352;-75
2022/06/13 00:07:30;;;;;;;3.70;2.40;;;26.30;48.40;;;;;;5052091;28;20043;-76
2022/06/13 00:09:57;;;;;;;2.53;2.33;;;26.20;48.50;;;;;;5056764;28;20064;-75
2022/06/13 00:12:23;;;;;;;3.40;2.40;;;26.20;48.60;;;;;;5057106;28;20029;-75
2022/06/13 00:14:48;;;;;;;2.63;2.42;;;26.20;48.70;;;;;;5055825;28;20116;-74
2022/06/13 00:17:14;;;;;;;2.67;2.20;;;26.10;48.70;;;;;;5055861;28;20112;-74
2022/06/13 00:19:40;;;;;;;2.53;2.33;;;26.10;48.80;;;;;;5055665;28;20079;-74
2022/06/13 00:22:06;;;;;;;4.05;2.38;;;26.20;48.90;;;;;;5056814;28;20458;-75
2022/06/13 00:24:32;;;;;;;2.80;2.60;;;26.10;49.40;;;;;;5056961;28;20025;-74
2022/06/13 00:26:58;;;;;;;2.60;2.40;;;26.20;48.90;;;;;;5057264;28;20517;-76
2022/06/13 00:29:24;;;;;;;2.58;2.38;;;26.20;48.80;;;;;;5056812;28;20037;-74
2022/06/13 00:31:49;;;;;;;2.55;2.35;;;26.20;48.90;;;;;;5056955;28;20553;-74
2022/06/13 00:34:15;;;;;;;2.65;2.45;;;26.30;48.90;;;;;;5056638;28;20483;-74
2022/06/13 00:36:41;;;;;;;2.25;2.15;;;26.20;48.80;;;;;;5056572;28;20067;-73
2022/06/13 00:39:06;;;;;;;3.28;2.75;;;26.20;48.80;;;;;;5055395;28;20052;-75
2022/06/13 00:41:35;;;;;;;2.55;2.35;;;26.20;49.00;;;;;;5055941;28;20033;-75
2022/06/13 00:44:00;;;;;;;3.00;2.53;;;26.10;49.00;;;;;;5055235;28;20086;-75
2022/06/13 00:46:31;;;;;;;2.65;2.30;;;26.10;49.00;;;;;;5056482;28;20423;-74
2022/06/13 00:49:21;;;;;;;2.95;2.55;;;26.10;49.10;;;;;;5056823;28;20040;-75
2022/06/13 00:52:08;;;;;;;2.85;2.55;;;26.20;49.40;;;;;;5055359;28;20419;-74
2022/06/13 00:54:37;;;;;;;2.38;2.17;;;26.20;49.10;;;;;;5055242;28;20041;-74
2022/06/13 00:57:04;;;;;;;2.60;2.40;;;26.20;49.10;;;;;;5056487;28;20387;-74
2022/06/13 00:59:33;;;;;;;2.58;2.38;;;26.20;49.20;;;;;;5055103;28;20186;-74
2022/06/13 01:01:59;;;;;;;2.65;2.33;;;26.20;49.10;;;;;;5055782;28;20065;-74
2022/06/13 01:04:25;;;;;;;2.63;2.42;;;26.20;49.10;;;;;;5056074;28;20029;-74
2022/06/13 01:06:51;;;;;;;3.70;2.30;;;26.20;49.20;;;;;;5055959;28;20040;-74
2022/06/13 01:11:16;;;;;;;3.13;2.30;;;26.20;49.30;;;;;;5056297;28;20048;-74
2022/06/13 01:12:07;;;;;;;2.55;2.35;;;26.20;49.30;;;;;;5055795;28;20054;-75
2022/06/13 01:15:15;;;;;;;2.60;2.40;;;26.20;49.20;;;;;;5055922;28;20047;-75
2022/06/13 01:17:59;;;;;;;2.60;2.40;;;26.20;49.60;;;;;;5053906;28;20033;-75
2022/06/13 01:20:45;;;;;;;3.53;2.40;;;26.10;49.40;;;;;;5055315;28;20533;-74
2022/06/13 01:23:35;;;;;;;2.47;2.28;;;26.10;49.40;;;;;;5055840;28;20033;-75
2022/06/13 01:26:19;;;;;;;2.42;2.22;;;26.10;49.40;;;;;;5055598;28;20053;-75
2022/06/13 01:28:47;;;;;;;3.92;2.33;;;26.10;49.40;;;;;;5055758;28;20032;-74
2022/06/13 01:31:36;;;;;;;2.50;2.30;;;26.10;49.40;;;;;;5055634;28;20029;-75
2022/06/13 01:34:16;;;;;;;2.70;2.50;;;26.10;49.70;;;;;;5055674;28;20025;-75
2022/06/13 01:37:20;;;;;;;3.70;2.58;;;26.10;49.70;;;;;;5055699;28;20032;-75
2022/06/13 01:40:13;;;;;;;2.42;2.22;;;26.10;50.00;;;;;;5054956;28;20041;-75
2022/06/13 01:42:57;;;;;;;2.60;2.40;;;26.00;49.70;;;;;;5055532;28;20108;-75
2022/06/13 01:45:28;;;;;;;2.60;2.40;;;26.00;50.00;;;;;;5055608;28;20033;-74
2022/06/13 01:48:15;;;;;;;2.40;2.20;;;26.00;49.90;;;;;;5055023;28;20068;-75
2022/06/13 01:51:02;;;;;;;2.60;2.40;;;26.00;49.90;;;;;;5055362;28;20029;-75
2022/06/13 01:53:34;;;;;;;2.38;2.17;;;26.00;49.80;;;;;;5055180;28;20021;-75
2022/06/13 01:56:10;;;;;;;2.55;2.35;;;26.00;49.90;;;;;;5055205;28;20032;-74
2022/06/13 01:58:59;;;;;;;2.53;2.33;;;26.00;50.10;;;;;;5053954;28;20383;-76
2022/06/13 02:01:34;;;;;;;2.88;2.30;;;26.00;50.40;;;;;;5053869;28;20028;-75
2022/06/13 02:04:18;;;;;;;3.85;2.60;;;26.00;50.20;;;;;;5053680;28;20029;-71
2022/06/13 02:06:48;;;;;;;;;;;25.90;50.50;;;;;;5055364;28;20040;-71
2022/06/13 02:09:22;;;;;;;2.28;2.08;;;25.90;51.00;;;;;;5054602;28;20408;-70
2022/06/13 02:11:53;;;;;;;2.40;2.20;;;25.90;50.20;;;;;;5054903;28;20092;-70
2022/06/13 02:14:29;;;;;;;3.35;2.30;;;25.90;50.30;;;;;;5053954;28;20021;-71
2022/06/13 02:17:08;;;;;;;2.58;2.38;;;25.90;50.50;;;;;;5053790;28;20383;-71
2022/06/13 02:19:40;;;;;;;3.45;2.60;;;25.90;50.60;;;;;;5053302;28;20123;-71
2022/06/13 02:22:35;;;;;;;3.38;2.45;;;25.90;50.50;;;;;;5055185;28;20025;-71
2022/06/13 02:25:19;;;;;;;2.67;2.33;;;25.90;51.00;;;;;;5053809;28;20052;-71
2022/06/13 02:27:49;;;;;;;;;;;25.90;50.90;;;;;;5053757;28;20032;-70
2022/06/13 02:30:19;;;;;;;2.20;2.10;;;25.90;51.50;;;;;;5053786;28;20362;-71
2022/06/13 02:33:08;;;;;;;4.40;2.60;;;25.90;50.60;;;;;;5054304;28;20108;-70
2022/06/13 02:35:43;;;;;;;3.75;2.08;;;25.70;51.70;;;;;;5053106;28;20044;-71
2022/06/13 02:38:15;;;;;;;2.95;2.63;;;25.60;50.80;;;;;;5054151;28;20032;-70
2022/06/13 02:40:47;;;;;;;2.78;2.58;;;25.60;50.90;;;;;;5053585;28;20021;-70
2022/06/13 02:43:17;;;;;;;5.53;2.67;;;25.60;51.00;;;;;;5054252;28;20185;-70
2022/06/13 02:45:48;;;;;;;3.60;2.60;;;25.50;51.10;;;;;;5054115;28;20424;-71
2022/06/13 02:48:31;;;;;;;2.75;2.55;;;25.50;51.20;;;;;;5052869;28;20028;-70
2022/06/13 02:51:05;;;;;;;2.60;2.40;;;25.60;51.30;;;;;;5054191;28;20029;-70
2022/06/13 02:53:47;;;;;;;2.70;2.50;;;25.60;51.30;;;;;;5054201;28;20039;-70
2022/06/13 02:59:56;;;;;;;2.60;2.40;;;25.70;51.70;;;;;;5054145;28;20102;-70
2022/06/13 03:02:48;;;;;;;2.90;2.60;;;25.70;51.30;;;;;;5052585;28;20464;-69
2022/06/13 03:05:15;;;;;;;2.78;2.45;;;25.60;51.40;;;;;;5053695;28;20025;-71
2022/06/13 03:07:55;;;;;;;2.88;2.67;;;25.60;52.00;;;;;;5054106;28;20035;-70
2022/06/13 03:10:28;;;;;;;2.58;2.38;;;25.60;51.50;;;;;;5054096;28;20460;-71
2022/06/13 03:13:01;;;;;;;2.80;2.50;;;25.60;51.60;;;;;;5053859;28;20491;-70
2022/06/13 03:15:49;;;;;;;2.95;2.50;;;25.70;51.70;;;;;;5054025;28;20043;-70
2022/06/13 03:18:23;;;;;;;2.92;2.60;;;25.70;52.00;;;;;;5054286;28;20112;-70
2022/06/13 03:21:00;;;;;;;2.72;2.53;;;25.70;51.60;;;;;;5053739;28;20025;-70
2022/06/13 03:23:28;;;;;;;2.95;2.67;;;25.80;51.50;;;;;;5053889;28;20082;-70
2022/06/13 03:26:05;;;;;;;3.75;2.60;;;25.80;51.50;;;;;;5053320;28;20064;-70
2022/06/13 03:28:34;;;;;;;2.63;2.42;;;25.70;51.60;;;;;;5053515;28;20120;-70
2022/06/13 03:31:06;;;;;;;3.75;2.78;;;25.80;51.70;;;;;;5053575;28;20489;-69
2022/06/13 03:33:41;;;;;;;3.28;2.38;;;25.80;51.70;;;;;;5053731;28;20021;-70
2022/06/13 03:36:14;;;;;;;4.10;2.22;;;25.90;51.80;;;;;;5052268;28;20029;-70
2022/06/13 03:38:46;;;;;;;2.80;2.60;;;25.90;51.80;;;;;;5052259;28;20108;-70
2022/06/13 03:41:16;;;;;;;2.92;2.60;;;25.90;51.70;;;;;;5053842;28;20021;-70
2022/06/13 03:43:51;;;;;;;3.10;2.50;;;26.00;51.90;;;;;;5057051;28;20025;-70
2022/06/13 03:46:23;;;;;;;2.80;2.60;;;25.90;51.80;;;;;;5056522;28;20029;-70
2022/06/13 03:49:00;;;;;;;3.22;2.72;;;25.90;52.00;;;;;;5057704;28;20417;-71
2022/06/13 03:51:38;;;;;;;3.00;2.78;;;25.90;52.10;;;;;;5057516;28;20025;-70
2022/06/13 03:54:12;;;;;;;3.03;2.72;;;25.90;52.10;;;;;;5056194;28;20032;-70
2022/06/13 03:56:49;;;;;;;3.17;2.75;;;25.90;52.20;;;;;;5056264;28;20036;-71
2022/06/13 03:59:29;;;;;;;2.95;2.65;;;25.90;52.30;;;;;;5057331;28;20028;-70
2022/06/13 04:02:02;;;;;;;2.97;2.78;;;25.90;53.00;;;;;;5057122;28;20033;-70
2022/06/13 04:04:35;;;;;;;4.15;2.70;;;25.90;52.40;;;;;;5057308;28;20483;-70
2022/06/13 04:07:01;;;;;;;3.05;2.75;;;25.90;52.50;;;;;;5057167;28;20037;-70
2022/06/13 04:09:49;;;;;;;3.13;2.65;;;25.90;52.40;;;;;;5057363;28;20025;-70
2022/06/13 04:12:24;;;;;;;3.20;2.90;;;25.90;52.80;;;;;;5057081;28;20029;-70
2022/06/13 04:15:02;;;;;;;3.72;2.70;;;25.90;52.50;;;;;;5057082;28;20025;-70
2022/06/13 04:17:30;;;;;;;3.08;2.78;;;25.80;52.50;;;;;;5057341;28;20025;-70
2022/06/13 04:20:20;;;;;;;5.32;3.08;;;25.80;52.70;;;;;;5056981;28;20053;-71
2022/06/13 04:22:49;;;;;;;3.15;2.85;;;25.80;52.80;;;;;;5056733;28;20025;-70
2022/06/13 04:25:33;;;;;;;3.80;2.85;;;25.70;52.70;;;;;;5056971;28;20103;-70
2022/06/13 04:28:03;;;;;;;;;;;25.70;53.60;;;;;;5057191;28;20076;-70
2022/06/13 04:30:31;;;;;;;3.15;2.85;;;25.60;53.40;;;;;;5056631;28;20000;-70
2022/06/13 04:33:23;;;;;;;3.10;2.80;;;25.70;52.70;;;;;;5056511;28;20091;-70
2022/06/13 04:35:49;;;;;;;3.78;2.80;;;25.70;53.20;;;;;;5055276;28;20025;-70
2022/06/13 04:38:18;;;;;;;3.80;2.88;;;25.70;52.80;;;;;;5056349;28;20021;-70
2022/06/13 04:40:54;;;;;;;3.50;3.10;;;25.60;52.80;;;;;;5056389;28;20033;-70
2022/06/13 04:43:23;;;;;;;3.40;2.97;;;25.60;52.80;;;;;;5055306;28;20115;-70
2022/06/13 04:45:55;;;;;;;3.83;3.00;;;25.60;52.80;;;;;;5055171;28;20025;-70
2022/06/13 04:48:21;;;;;;;3.15;2.85;;;25.70;52.90;;;;;;5056600;28;20036;-69
2022/06/13 04:50:50;;;;;;;3.08;2.67;;;25.70;52.80;;;;;;5056725;28;20059;-69
2022/06/13 04:53:31;;;;;;;3.40;2.90;;;25.70;52.80;;;;;;5055086;28;20356;-69
2022/06/13 04:55:59;;;;;;;3.53;2.90;;;25.70;53.40;;;;;;5054610;28;20390;-70
2022/06/13 04:58:39;;;;;;;3.33;3.00;;;25.70;52.80;;;;;;5055371;28;20048;-69
2022/06/13 05:01:25;;;;;;;3.35;3.05;;;25.80;53.10;;;;;;5056012;28;20455;-70
2022/06/13 05:03:54;;;;;;;3.05;2.80;;;25.60;53.20;;;;;;5056032;28;20029;-72
2022/06/13 05:06:31;;;;;;;3.00;2.80;;;25.60;53.00;;;;;;5055952;28;20029;-71
2022/06/13 05:09:02;;;;;;;3.83;2.88;;;25.60;53.10;;;;;;5056215;28;20025;-73
2022/06/13 05:11:51;;;;;;;4.63;3.28;;;25.70;53.10;;;;;;5054763;28;20029;-72
2022/06/13 05:14:25;;;;;;;3.85;2.97;;;25.70;53.00;;;;;;5044188;28;20037;-72
2022/06/13 05:17:19;;;;;;;4.07;2.70;;;25.70;53.00;;;;;;5055673;28;20123;-70
2022/06/13 05:20:04;;;;;;;;;;;25.70;53.10;;;;;;5055211;28;20025;-70
2022/06/13 05:22:50;;;;;;;;;;;25.60;53.50;;;;;;5056111;28;19944;-70
2022/06/13 05:25:45;;;;;;;2.70;2.50;;;25.70;53.90;;;;;;5055339;28;19916;-70
2022/06/13 05:28:18;;;;;;;2.83;2.63;;;25.60;53.30;;;;;;5054517;28;20044;-70
2022/06/13 05:30:46;;;;;;;2.97;2.50;;;25.70;53.20;;;;;;5055836;28;20033;-71
2022/06/13 05:33:15;;;;;;;3.17;2.80;;;25.80;53.30;;;;;;5054069;28;20025;-70
2022/06/13 05:35:43;;;;;;;3.53;3.13;;;25.70;53.10;;;;;;5054175;28;20025;-70
2022/06/13 05:38:18;;;;;;;3.75;3.28;;;25.70;53.20;;;;;;5054170;28;20029;-71
2022/06/13 05:40:45;;;;;;;4.47;3.28;;;25.70;53.30;;;;;;5055503;28;20467;-68
2022/06/13 05:43:12;;;;;;;4.45;3.05;;;25.60;53.30;;;;;;5054423;28;20112;-70
2022/06/13 05:45:39;;;;;;;3.97;2.90;;;25.60;53.50;;;;;;5054306;28;20095;-70
2022/06/13 05:48:11;;;;;;;5.00;3.03;;;25.70;53.60;;;;;;5053597;28;20032;-71
2022/06/13 05:50:36;;;;;;;3.10;2.80;;;25.70;53.60;;;;;;5055624;28;20021;-70
2022/06/13 05:53:02;;;;;;;3.28;2.97;;;25.70;53.60;;;;;;5053950;28;20424;-69
2022/06/13 05:55:28;;;;;;;3.75;2.97;;;25.70;53.50;;;;;;5037115;28;20021;-72
2022/06/13 05:57:54;;;;;;;3.10;2.80;;;25.80;53.60;;;;;;5053855;28;20499;-70
2022/06/13 06:00:24;;;;;;;3.30;3.00;;;25.80;53.70;;;;;;5054956;28;20025;-69
2022/06/13 06:02:50;;;;;;;3.20;2.90;;;25.80;54.30;;;;;;5054831;28;20025;-70
2022/06/13 06:05:15;;;;;;;3.47;3.17;;;25.70;53.70;;;;;;5054198;28;20028;-70
2022/06/13 06:07:41;;;;;;;4.85;3.00;;;25.80;53.80;;;;;;5053070;28;20391;-70
2022/06/13 06:10:15;;;;;;;3.70;3.30;;;25.80;53.80;;;;;;5053446;28;20490;-70
2022/06/13 06:12:41;;;;;;;3.65;3.28;;;25.80;53.90;;;;;;5053714;28;20025;-71
2022/06/13 06:15:07;;;;;;;3.90;3.50;;;25.80;53.90;;;;;;5053346;28;20848;-73
2022/06/13 06:17:32;;;;;;;4.85;3.03;;;25.90;54.00;;;;;;5053336;28;20069;-69
2022/06/13 06:19:58;;;;;;;3.67;2.97;;;25.90;53.90;;;;;;5054665;28;20032;-71
2022/06/13 06:22:24;;;;;;;3.88;2.80;;;25.90;54.50;;;;;;5054755;28;20025;-67
2022/06/13 06:24:49;;;;;;;3.30;2.78;;;25.90;53.90;;;;;;5054407;28;20024;-69
2022/06/13 06:27:16;;;;;;;2.90;2.60;;;26.00;53.90;;;;;;5054910;28;20383;-70
2022/06/13 06:29:41;;;;;;;3.10;2.80;;;26.10;53.80;;;;;;5054083;28;20066;-69
2022/06/13 06:32:07;;;;;;;3.92;3.00;;;26.10;53.80;;;;;;5054550;28;20025;-71
2022/06/13 06:34:33;;;;;;;3.10;2.80;;;26.10;53.90;;;;;;5053110;28;20025;-67
2022/06/13 06:36:59;;;;;;;4.05;3.00;;;26.20;54.00;;;;;;5054441;28;20074;-70
2022/06/13 06:39:24;;;;;;;3.22;2.80;;;26.20;54.00;;;;;;5053175;28;20467;-70
2022/06/13 06:41:51;;;;;;;6.05;3.25;;;26.30;54.00;;;;;;5052819;28;20360;-69
2022/06/13 06:44:17;;;;;;;4.95;2.72;;;26.30;53.80;;;;;;5054060;28;20032;-69
2022/06/13 06:46:43;;;;;;;3.70;3.30;;;26.30;53.80;;;;;;5054051;28;20460;-68
2022/06/13 06:49:10;;;;;;;3.78;2.78;;;26.30;53.80;;;;;;5054361;28;20121;-71
2022/06/13 06:51:36;;;;;;;3.00;2.70;;;26.30;53.70;;;;;;5053862;28;20025;-70
2022/06/13 07:02:14;;;;;;;4.57;2.80;;;26.30;53.50;;;;;;5052724;28;20063;-70
2022/06/13 07:04:39;;;;;;;4.18;2.63;;;26.30;53.40;;;;;;5052287;28;20494;-69
2022/06/13 07:07:05;;;;;;;3.10;2.83;;;26.30;53.30;;;;;;5053677;28;20056;-70
2022/06/13 07:09:31;;;;;;;3.83;3.42;;;26.30;53.30;;;;;;5053825;28;20048;-69
2022/06/13 07:11:57;;;;;;;3.33;2.88;;;26.20;53.20;;;;;;5053714;28;20067;-70
2022/06/13 07:14:31;;;;;;;4.20;2.80;;;26.20;53.20;;;;;;5053737;28;20025;-69
2022/06/13 07:16:59;;;;;;;2.97;2.63;;;26.20;53.10;;;;;;5052074;28;20032;-70
2022/06/13 07:19:25;;;;;;;2.92;2.72;;;26.20;53.10;;;;;;5052164;28;20036;-70
2022/06/13 07:21:51;;;;;;;2.97;2.78;;;26.30;53.10;;;;;;5053532;28;20052;-70
2022/06/13 07:24:17;;;;;;;2.80;2.60;;;26.30;53.10;;;;;;5053913;28;20463;-69
2022/06/13 07:26:43;;;;;;;3.25;2.70;;;26.30;53.00;;;;;;5052422;28;20053;-71
2022/06/13 07:29:10;;;;;;;4.13;2.63;;;26.30;53.00;;;;;;5053578;28;20048;-70
2022/06/13 07:31:45;;;;;;;2.90;2.70;;;26.30;52.90;;;;;;5051811;28;20463;-74
2022/06/13 07:34:18;;;;;;;2.80;2.60;;;26.40;52.80;;;;;;5053269;28;20025;-68
2022/06/13 07:36:45;;;;;;;2.72;2.53;;;26.40;52.70;;;;;;5053471;28;20036;-70
2022/06/13 07:39:11;;;;;;;3.17;2.30;;;26.40;52.60;;;;;;5051972;28;20378;-70
2022/06/13 07:41:39;;;;;;;2.60;2.40;;;26.50;52.60;;;;;;5053319;28;20029;-70
2022/06/13 07:44:06;;;;;;;2.50;2.30;;;26.50;52.50;;;;;;5053744;28;20036;-70
2022/06/13 07:46:32;;;;;;;2.60;2.40;;;26.60;52.50;;;;;;5053150;28;20391;-70
2022/06/13 07:48:59;;;;;;;3.70;2.60;;;26.60;52.20;;;;;;5053004;28;20033;-69
2022/06/13 07:51:26;;;;;;;2.88;2.63;;;26.60;52.20;;;;;;5052641;28;20124;-68
2022/06/13 07:53:53;;;;;;;2.30;2.10;;;26.60;52.20;;;;;;5053336;28;20113;-66
2022/06/13 07:56:22;;;;;;;3.42;2.40;;;26.70;52.10;;;;;;5053345;28;20025;-67
2022/06/13 07:58:51;;;;;;;3.28;2.55;;;26.70;52.00;;;;;;5051813;28;20029;-67
2022/06/13 08:01:18;;;;;;;2.50;2.30;;;26.80;52.00;;;;;;5051167;28;20025;-67
2022/06/13 08:03:44;;;;;;;2.28;2.17;;;26.80;51.90;;;;;;5051760;28;20071;-67
2022/06/13 08:06:10;;;;;;;2.63;2.42;;;26.80;51.90;;;;;;5052607;28;20138;-67
2022/06/13 08:08:39;;;;;;;2.40;2.20;;;26.80;51.80;;;;;;5052601;28;20064;-67
2022/06/13 08:11:07;;;;;;;2.80;2.60;;;26.80;51.80;;;;;;5052632;28;20048;-66
2022/06/13 08:13:33;;;;;;;3.03;2.55;;;26.90;51.80;;;;;;5051318;28;20441;-70
2022/06/13 08:15:59;;;;;;;2.75;2.40;;;26.90;51.70;;;;;;5052097;28;20044;-68
2022/06/13 08:18:24;;;;;;;2.60;2.40;;;27.00;51.70;;;;;;5052697;28;20399;-68
2022/06/13 08:20:50;;;;;;;2.50;2.30;;;27.00;51.60;;;;;;5052552;28;20083;-68
2022/06/13 08:23:18;;;;;;;3.28;2.30;;;27.10;51.60;;;;;;5052534;28;20083;-67
2022/06/13 08:25:46;;;;;;;3.55;3.25;;;27.10;51.50;;;;;;5052162;28;20029;-68
2022/06/13 08:28:13;;;;;;;3.78;2.80;;;27.10;51.30;;;;;;5052432;28;20494;-67
2022/06/13 08:31:05;;;;;;;3.28;2.67;;;27.20;51.40;;;;;;5055249;28;20095;-68
2022/06/13 08:33:31;;;;;;;3.00;2.38;;;27.30;51.30;;;;;;5055714;28;20043;-67
2022/06/13 08:35:58;;;;;;;2.50;2.30;;;27.30;51.20;;;;;;5056533;28;20056;-72
2022/06/13 08:38:24;;;;;;;2.30;2.10;;;27.30;51.10;;;;;;5056106;28;20410;-68
2022/06/13 08:41:12;;;;;;;2.50;2.20;;;27.40;51.00;;;;;;5055911;28;20021;-68
2022/06/13 08:44:15;;;;;;;2.50;2.30;;;27.40;50.80;;;;;;5055517;28;20029;-68
2022/06/13 08:46:48;;;;;;;2.55;2.35;;;27.50;50.60;;;;;;5055254;28;20033;-67
2022/06/13 08:49:13;;;;;;;2.40;2.20;;;27.50;50.60;;;;;;5055384;28;20036;-68
2022/06/13 08:51:56;;;;;;;2.38;2.17;;;27.50;50.50;;;;;;5055507;28;20108;-68
2022/06/13 08:54:28;;;;;;;2.13;2.03;;;27.50;50.40;;;;;;5055636;28;20044;-65
2022/06/13 08:56:55;;;;;;;3.38;2.28;;;27.60;50.40;;;;;;5055279;28;20033;-67
2022/06/13 08:59:45;;;;;;;2.45;2.15;;;27.60;50.40;;;;;;5053734;28;20025;-67
2022/06/13 09:02:31;;;;;;;2.20;2.00;;;27.70;50.20;;;;;;5055220;28;20370;-67
2022/06/13 09:05:19;;;;;;;2.15;2.05;;;27.70;50.10;;;;;;5055169;28;20047;-67
2022/06/13 09:07:58;;;;;;;2.03;1.90;;;27.70;50.00;;;;;;5054832;28;20551;-67
2022/06/13 09:10:25;;;;;;;2.30;2.10;;;27.80;50.10;;;;;;5055291;28;20028;-67
2022/06/13 09:13:09;;;;;;;3.33;2.00;;;27.90;50.10;;;;;;5054915;28;20025;-67
2022/06/13 09:15:44;;;;;;;;;;;28.00;50.60;;;;;;5055529;28;20037;-67
2022/06/13 09:18:25;;;;;;;3.83;2.00;;;28.00;49.60;;;;;;5054628;28;19904;-67
2022/06/13 09:21:21;;;;;;;2.15;2.00;;;28.10;49.80;;;;;;5054035;28;20025;-66
2022/06/13 09:23:50;;;;;;;1.90;1.80;;;28.10;49.70;;;;;;5054465;28;20116;-68
2022/06/13 09:26:50;;;;;;;2.65;1.80;;;28.20;49.70;;;;;;5054801;28;20055;-67
2022/06/13 09:29:47;;;;;;;2.20;2.00;;;28.30;49.40;;;;;;5053307;28;20045;-68
2022/06/13 09:32:19;;;;;;;2.35;1.88;;;28.30;49.20;;;;;;5053234;28;20032;-74
2022/06/13 09:34:48;;;;;;;3.00;2.00;;;28.30;49.10;;;;;;5054637;28;20033;-67
2022/06/13 09:37:16;;;;;;;2.28;1.98;;;28.30;49.20;;;;;;5054165;28;20112;-67
2022/06/13 09:39:42;;;;;;;2.00;1.90;;;28.30;49.20;;;;;;5053951;28;20056;-67
2022/06/13 09:42:25;;;;;;;2.13;1.92;;;28.30;49.10;;;;;;5052761;28;20051;-66
2022/06/13 09:45:32;;;;;;;1.90;1.80;;;28.40;49.10;;;;;;5054535;28;20479;-68
2022/06/13 09:48:19;;;;;;;2.03;1.92;;;28.40;48.90;;;;;;5051645;28;20041;-68
2022/06/13 09:51:26;;;;;;;2.00;1.90;;;28.30;48.70;;;;;;5054018;28;20120;-67
2022/06/13 09:54:09;;;;;;;1.95;1.85;;;28.40;48.70;;;;;;5054055;28;20113;-67
2022/06/13 09:56:47;;;;;;;2.00;1.90;;;28.40;48.80;;;;;;5054712;28;20496;-68
2022/06/13 09:59:32;;;;;;;2.08;1.88;;;28.40;48.80;;;;;;5054942;28;20032;-68
2022/06/13 10:02:20;;;;;;;;;;;28.40;48.70;;;;;;5053085;28;20071;-66
2022/06/13 10:05:30;;;;;;;1.85;1.75;;;28.40;48.40;;;;;;5053919;28;19905;-68
2022/06/13 10:08:07;;;;;;;1.83;1.73;;;28.40;48.40;;;;;;5054053;28;20036;-68
2022/06/13 10:10:45;;;;;;;2.08;1.90;;;28.40;48.60;;;;;;5054011;28;20021;-67
2022/06/13 10:13:19;;;;;;;1.80;1.70;;;28.50;48.50;;;;;;5054160;28;20025;-67
2022/06/13 10:16:04;;;;;;;1.70;1.60;;;28.60;48.40;;;;;;5054357;28;20364;-67
2022/06/13 10:18:35;;;;;;;2.80;1.80;;;28.60;48.30;;;;;;5052480;28;20119;-66
2022/06/13 10:21:34;;;;;;;2.28;1.80;;;28.60;48.10;;;;;;5053755;28;20378;-67
2022/06/13 10:24:31;;;;;;;2.10;2.00;;;28.60;47.80;;;;;;5053281;28;20123;-69
2022/06/13 10:27:03;;;;;;;2.72;1.80;;;28.60;47.80;;;;;;5053759;28;20084;-68
2022/06/13 10:29:58;;;;;;;2.00;1.80;;;28.70;48.00;;;;;;5053795;28;20025;-66
2022/06/13 10:32:42;;;;;;;2.15;1.65;;;28.70;48.00;;;;;;5053496;28;20029;-67
2022/06/13 10:35:39;;;;;;;1.80;1.70;;;28.80;47.90;;;;;;5053479;28;20033;-67
2022/06/13 10:38:26;;;;;;;1.95;1.63;;;28.80;47.80;;;;;;5052168;28;20055;-67
2022/06/13 10:40:52;;;;;;;1.73;1.63;;;28.80;47.50;;;;;;5053601;28;20044;-68
2022/06/13 10:43:18;;;;;;;2.00;1.80;;;28.80;47.70;;;;;;5053611;28;20033;-67
2022/06/13 10:45:44;;;;;;;1.45;1.35;;;28.90;47.70;;;;;;5053458;28;20029;-68
2022/06/13 10:48:17;;;;;;;1.98;1.77;;;28.90;47.50;;;;;;5051631;28;20398;-68
2022/06/13 10:50:55;;;;;;;1.75;1.55;;;28.90;47.40;;;;;;5054297;28;20029;-68
2022/06/13 10:53:25;;;;;;;1.65;1.55;;;28.90;47.20;;;;;;5051886;28;20043;-70
2022/06/13 10:55:54;;;;;;;2.00;1.90;;;28.90;47.30;;;;;;5053030;28;20057;-68
2022/06/13 10:58:44;;;;;;;2.00;1.90;;;28.90;47.20;;;;;;5053062;28;20025;-66
2022/06/13 11:01:19;;;;;;;1.80;1.70;;;29.00;47.00;;;;;;5052639;28;20021;-67
2022/06/13 11:04:16;;;;;;;1.50;1.40;;;29.00;47.10;;;;;;5052925;28;20036;-68
2022/06/13 11:06:55;;;;;;;1.90;1.35;;;29.00;46.90;;;;;;5052537;28;20039;-68
2022/06/13 11:09:37;;;;;;;1.70;1.60;;;29.00;47.00;;;;;;5051695;28;20098;-67
2022/06/13 11:12:25;;;;;;;2.65;1.70;;;29.10;47.00;;;;;;5052854;28;20036;-67
2022/06/13 11:24:45;;;;;;;3.08;1.60;;;29.20;46.30;;;;;;5051513;28;20098;-66
2022/06/13 11:27:41;;;;;;;1.50;1.40;;;29.20;46.30;;;;;;5052750;28;20103;-66
2022/06/13 11:30:26;;;;;;;1.95;1.67;;;29.20;46.10;;;;;;5052725;28;20110;-66
2022/06/13 11:33:21;;;;;;;1.83;1.73;;;29.20;46.10;;;;;;5052272;28;20031;-67
2022/06/13 11:35:47;;;;;;;1.77;1.52;;;29.20;46.20;;;;;;5052957;28;20040;-66
2022/06/13 11:38:14;;;;;;;1.63;1.50;;;29.20;45.90;;;;;;5051542;28;20021;-67
2022/06/13 11:40:41;;;;;;;1.75;1.60;;;29.10;45.90;;;;;;5051422;28;20021;-66
2022/06/13 11:43:18;;;;;;;2.15;1.60;;;29.10;45.90;;;;;;5052847;28;20036;-67
2022/06/13 11:45:52;;;;;;;1.75;1.65;;;29.10;45.40;;;;;;5051673;28;20033;-67
2022/06/13 11:48:18;;;;;;;1.58;1.48;;;29.10;45.80;;;;;;5052547;28;20095;-67
2022/06/13 11:50:44;;;;;;;2.03;1.58;;;29.10;45.60;;;;;;5052735;28;20041;-67
2022/06/13 11:55:59;;;;;;;1.75;1.40;;;29.10;45.60;;;;;;5053017;28;20530;-67
2022/06/13 11:58:28;;;;;;;1.75;1.65;;;29.20;45.60;;;;;;5052495;28;20033;-65
2022/06/13 12:01:02;;;;;;;1.80;1.70;;;29.10;45.20;;;;;;5052394;28;20029;-67
2022/06/13 12:03:28;;;;;;;1.63;1.52;;;29.10;45.30;;;;;;5054220;28;20024;-68
2022/06/13 12:06:21;;;;;;;2.42;1.60;;;29.20;45.50;;;;;;5056658;28;20486;-67
2022/06/13 12:09:01;;;;;;;4.75;1.48;;;29.20;45.10;;;;;;5056287;28;20056;-67
2022/06/13 12:11:27;;;;;;;3.15;1.60;;;29.30;45.30;;;;;;5056588;28;20021;-66
2022/06/13 12:13:56;;;;;;;1.40;1.30;;;29.30;45.40;;;;;;5056632;28;20108;-66
2022/06/13 12:16:32;;;;;;;2.38;1.70;;;29.30;45.30;;;;;;5056410;28;20033;-68
2022/06/13 12:19:07;;;;;;;1.73;1.63;;;29.40;45.00;;;;;;5056467;28;20017;-68
2022/06/13 12:21:43;;;;;;;2.75;1.85;;;29.40;44.40;;;;;;5056378;28;20036;-67
2022/06/13 12:24:27;;;;;;;2.03;1.80;;;29.40;44.70;;;;;;5056431;28;20114;-67
2022/06/13 12:27:11;;;;;;;1.48;1.38;;;29.40;44.00;;;;;;5056054;28;20094;-67
2022/06/13 12:30:00;;;;;;;2.78;1.60;;;29.50;44.70;;;;;;5056141;28;20041;-67
2022/06/13 12:32:30;;;;;;;1.50;1.40;;;29.60;44.70;;;;;;5056460;28;20461;-67
2022/06/13 12:35:02;;;;;;;1.80;1.67;;;29.60;44.70;;;;;;5056483;28;20040;-67
2022/06/13 12:37:57;;;;;;;1.70;1.60;;;29.70;44.70;;;;;;5056185;28;20456;-67
2022/06/13 12:40:56;;;;;;;1.92;1.40;;;29.80;44.40;;;;;;5055886;28;20104;-67
2022/06/13 12:44:12;;;;;;;2.42;1.67;;;29.90;43.80;;;;;;5055871;28;20387;-67
2022/06/13 12:47:05;;;;;;;3.05;1.80;;;30.00;44.10;;;;;;5055251;28;20498;-67
2022/06/13 12:49:33;;;;;;;1.58;1.48;;;30.00;44.20;;;;;;5054941;28;20356;-67
2022/06/13 12:52:14;;;;;;;1.60;1.50;;;30.10;44.20;;;;;;5054540;28;20384;-67
2022/06/13 12:55:12;;;;;;;2.47;1.80;;;30.00;43.80;;;;;;5054035;28;20032;-71
2022/06/13 12:57:48;;;;;;;1.65;1.55;;;30.00;43.40;;;;;;5054553;28;20387;-70
2022/06/13 13:00:19;;;;;;;2.00;1.58;;;30.10;43.80;;;;;;5055770;28;20036;-71
2022/06/13 13:02:48;;;;;;;1.40;1.30;;;30.20;43.70;;;;;;5046504;28;20044;-70
2022/06/13 13:05:46;;;;;;;1.58;1.48;;;30.40;43.70;;;;;;5035496;28;20065;-70
2022/06/13 13:08:36;;;;;;;2.45;1.50;;;30.60;43.30;;;;;;5035659;28;20033;-71
2022/06/13 13:11:04;;;;;;;1.52;1.40;;;30.90;43.20;;;;;;5035430;28;20025;-70
2022/06/13 13:13:42;;;;;;;1.30;1.30;;;31.00;43.00;;;;;;5035414;28;20519;-71
2022/06/13 13:16:33;;;;;;;1.50;1.40;;;31.20;42.70;;;;;;5034977;28;20447;-71
2022/06/13 13:19:14;;;;;;;1.67;1.42;;;31.30;42.00;;;;;;5034039;28;20030;-69
2022/06/13 13:21:50;;;;;;;1.33;1.23;;;31.50;42.50;;;;;;5034567;28;20522;-71
2022/06/13 13:24:37;;;;;;;1.60;1.50;;;31.60;42.40;;;;;;5035711;28;20376;-71
2022/06/13 13:27:12;;;;;;;3.22;1.60;;;31.70;42.20;;;;;;5035805;28;20056;-72
2022/06/13 13:29:38;;;;;;;1.98;1.30;;;31.80;42.20;;;;;;5035164;28;20033;-71
2022/06/13 13:32:28;;;;;;;1.50;1.40;;;31.90;42.10;;;;;;5050697;28;20040;-72
2022/06/13 13:34:56;;;;;;;1.50;1.40;;;32.40;41.90;;;;;;5053471;28;20083;-72
2022/06/13 13:37:52;;;;;;;1.33;1.23;;;33.00;41.60;;;;;;5045715;28;20040;-71
2022/06/13 13:40:43;;;;;;;1.20;1.10;;;33.80;41.10;;;;;;5043666;28;20042;-72
2022/06/13 13:43:35;;;;;;;1.30;1.20;;;34.80;40.20;;;;;;5044592;28;20018;-70
2022/06/13 13:46:17;;;;;;;1.20;1.10;;;35.80;40.30;;;;;;5044784;28;20029;-71
2022/06/13 13:49:01;;;;;;;0.90;0.90;;;36.50;39.90;;;;;;5052792;28;20047;-72
2022/06/13 13:51:36;;;;;;;1.10;1.00;;;36.90;39.10;;;;;;5052530;28;20063;-70
2022/06/13 13:54:22;;;;;;;1.13;1.02;;;37.20;38.80;;;;;;5048400;28;20090;-71